createdAt,value
2018-08-16T00:04:39.211Z,95284.5
2018-08-16T00:09:34.984Z,95286.8
2018-08-16T00:14:30.837Z,95280.1
2018-08-16T00:19:26.552Z,95384.5
2018-08-16T00:24:22.380Z,95386.3
2018-08-16T00:29:18.051Z,95349.8
2018-08-16T00:34:13.716Z,95282
2018-08-16T00:39:09.368Z,95283.4
2018-08-16T00:44:04.936Z,95404.7
2018-08-16T00:49:00.965Z,95401.1
2018-08-16T00:53:56.795Z,95269.6
2018-08-16T00:58:52.523Z,95391.7
2018-08-16T01:03:48.260Z,95400.2
2018-08-16T01:08:44.074Z,95296.8
2018-08-16T01:13:40.002Z,95299.5
2018-08-16T01:18:35.938Z,95292.3
2018-08-16T01:23:31.505Z,95400.6
2018-08-16T01:28:27.166Z,95407.5
2018-08-16T01:33:22.875Z,95290.3
2018-08-16T01:38:18.797Z,95281
2018-08-16T01:43:14.546Z,95401.8
2018-08-16T01:48:10.385Z,95288
2018-08-16T01:53:06.096Z,95397.2
2018-08-16T01:58:01.931Z,95296.3
2018-08-16T02:02:57.205Z,95405.6
2018-08-16T02:07:52.935Z,95404.5
2018-08-16T02:12:48.612Z,95296.9
2018-08-16T02:17:44.373Z,95408.9
2018-08-16T02:22:40.087Z,95288.6
2018-08-16T02:27:35.698Z,95298.5
2018-08-16T02:32:31.516Z,95298.1
2018-08-16T02:37:27.345Z,95411.6
2018-08-16T02:42:23.185Z,95299.7
2018-08-16T02:47:18.920Z,95310.2
2018-08-16T02:52:14.688Z,95426.7
2018-08-16T02:57:10.509Z,95306.2
2018-08-16T03:02:06.295Z,95427.1
2018-08-16T03:07:01.687Z,95425.5
2018-08-16T03:11:57.393Z,95419.2
2018-08-16T03:16:53.096Z,95412.7
2018-08-16T03:21:49.011Z,95297.3
2018-08-16T03:26:44.925Z,95303.6
2018-08-16T03:31:40.796Z,95325.2
2018-08-16T03:36:36.322Z,95329.6
2018-08-16T03:41:31.912Z,95331.5
2018-08-16T03:46:27.581Z,95458.7
2018-08-16T03:51:23.283Z,95333.8
2018-08-16T03:56:19.084Z,95461.5
2018-08-16T04:01:14.808Z,95466.9
2018-08-16T04:06:10.417Z,95462.9
2018-08-16T04:11:06.334Z,95464.9
2018-08-16T04:16:02.090Z,95463.8
2018-08-16T04:20:57.931Z,95463.4
2018-08-16T04:25:53.552Z,95345.4
2018-08-16T04:30:49.193Z,95356.5
2018-08-16T04:35:45.033Z,95361.7
2018-08-16T04:40:40.900Z,95354.3
2018-08-16T04:45:36.287Z,95365.9
2018-08-16T04:50:32.305Z,95362.8
2018-08-16T04:55:28.018Z,95355.7
2018-08-16T05:00:23.738Z,95443.8
2018-08-16T05:05:19.598Z,95363.8
2018-08-16T05:10:15.431Z,95482.9
2018-08-16T05:15:11.324Z,95376.5
2018-08-16T05:20:07.019Z,95483.7
2018-08-16T05:25:02.852Z,95484.7
2018-08-16T05:29:58.583Z,95485.7
2018-08-16T05:34:54.356Z,95494.9
2018-08-16T05:39:50.248Z,95365.5
2018-08-16T05:44:45.802Z,95491.3
2018-08-16T05:49:41.557Z,95373.5
2018-08-16T05:54:37.443Z,95329.2
2018-08-16T05:59:33.136Z,95367.4
2018-08-16T06:04:29.010Z,95383.1
2018-08-16T06:09:24.801Z,95381.2
2018-08-16T06:14:20.661Z,95373.6
2018-08-16T06:19:16.203Z,95482.2
2018-08-16T06:24:12.092Z,95366.3
2018-08-16T06:29:08.304Z,95359.1
2018-08-16T06:34:04.011Z,95476.3
2018-08-16T06:38:59.490Z,95360.8
2018-08-16T06:43:55.194Z,95355.3
2018-08-16T06:48:51.120Z,95433.8
2018-08-16T06:53:46.599Z,95469
2018-08-16T06:58:42.624Z,95355.9
2018-08-16T07:03:38.521Z,95366.9
2018-08-16T07:08:34.394Z,95325.3
2018-08-16T07:13:30.032Z,95366.9
2018-08-16T07:18:25.798Z,95366.4
2018-08-16T07:23:21.892Z,95469.3
2018-08-16T07:28:17.517Z,95360.6
2018-08-16T07:33:13.356Z,95362.5
2018-08-16T07:38:09.298Z,95349.1
2018-08-16T07:43:05.141Z,95459.6
2018-08-16T07:48:01.017Z,95304.3
2018-08-16T07:52:56.920Z,95345.7
2018-08-16T07:57:52.715Z,95351.2
2018-08-16T08:02:48.669Z,95335.9
2018-08-16T08:07:44.393Z,95448.6
2018-08-16T08:12:40.465Z,95449.7
2018-08-16T08:17:36.425Z,95339
2018-08-16T08:22:32.417Z,95445.8
2018-08-16T08:27:28.219Z,95452.1
2018-08-16T08:32:24.114Z,95320.5
2018-08-16T08:37:19.920Z,95428.9
2018-08-16T08:42:15.827Z,95315.5
2018-08-16T08:47:11.871Z,95322.8
2018-08-16T08:52:07.914Z,95323.7
2018-08-16T08:57:03.869Z,95321.7
2018-08-16T09:01:59.235Z,95429.2
2018-08-16T09:06:55.457Z,95314.2
2018-08-16T09:11:51.469Z,95309.1
2018-08-16T09:16:47.506Z,95428.1
2018-08-16T09:21:43.570Z,95295
2018-08-16T09:26:39.670Z,95410.5
2018-08-16T09:31:35.783Z,95414.2
2018-08-16T09:36:31.446Z,95413.6
2018-08-16T09:41:27.300Z,95410.7
2018-08-16T09:46:23.352Z,95403.4
2018-08-16T09:51:19.534Z,95395.8
2018-08-16T09:56:15.420Z,95400.6
2018-08-16T10:01:11.693Z,95398.7
2018-08-16T10:06:07.527Z,95390.6
2018-08-16T10:11:03.522Z,95386.4
2018-08-16T10:15:59.574Z,95386.3
2018-08-16T10:20:55.734Z,95388.9
2018-08-16T10:25:51.662Z,95379.8
2018-08-16T10:30:47.670Z,95377.7
2018-08-16T10:35:43.587Z,95364.5
2018-08-16T10:40:39.714Z,95363.8
2018-08-16T10:45:35.678Z,95367.6
2018-08-16T10:50:31.449Z,95360.5
2018-08-16T10:55:27.387Z,95354.7
2018-08-16T11:00:23.327Z,95347.6
2018-08-16T11:05:19.222Z,95347.9
2018-08-16T11:10:14.851Z,95350.9
2018-08-16T11:15:10.975Z,95345.2
2018-08-16T11:20:06.891Z,95350.3
2018-08-16T11:25:02.668Z,95347.4
2018-08-16T11:29:58.739Z,95354.4
2018-08-16T11:34:54.848Z,95343.1
2018-08-16T11:39:50.844Z,95236.9
2018-08-16T11:44:46.979Z,95332.4
2018-08-16T11:49:42.802Z,95235
2018-08-16T11:54:38.783Z,95330
2018-08-16T11:59:35.100Z,95219.3
2018-08-16T12:04:31.005Z,95330.1
2018-08-16T12:09:26.906Z,95226.1
2018-08-16T12:14:22.821Z,95328.5
2018-08-16T12:19:19.157Z,95222.4
2018-08-16T12:24:15.228Z,95318.4
2018-08-16T12:29:11.194Z,95311.1
2018-08-16T12:34:07.021Z,95310.4
2018-08-16T12:39:03.104Z,95298.2
2018-08-16T12:43:59.055Z,95303.1
2018-08-16T12:48:55.051Z,95203
2018-08-16T12:53:51.071Z,95191
2018-08-16T12:58:47.263Z,95291.5
2018-08-16T13:03:42.787Z,95181.4
2018-08-16T13:08:38.817Z,95187.2
2018-08-16T13:13:34.956Z,95183.6
2018-08-16T13:18:30.722Z,95276.9
2018-08-16T13:23:26.459Z,95274
2018-08-16T13:28:22.299Z,95182.7
2018-08-16T13:33:17.927Z,95170.7
2018-08-16T13:38:13.510Z,95274.6
2018-08-16T13:43:09.425Z,95163.7
2018-08-16T13:48:05.471Z,95260.4
2018-08-16T13:53:01.275Z,95265.5
2018-08-16T13:57:57.681Z,95254.3
2018-08-16T14:02:53.820Z,95252.1
2018-08-16T14:07:49.999Z,95146.5
2018-08-16T14:12:45.958Z,95151.4
2018-08-16T14:17:41.485Z,95153.5
2018-08-16T14:22:37.323Z,95144.7
2018-08-16T14:27:33.348Z,95250.3
2018-08-16T14:32:29.018Z,95155.4
2018-08-16T14:37:24.956Z,95157.7
2018-08-16T14:42:21.014Z,95155.2
2018-08-16T14:47:16.926Z,95262.8
2018-08-16T14:52:12.760Z,95160.5
2018-08-16T14:57:08.712Z,95266.6
2018-08-16T15:02:04.570Z,95163.4
2018-08-16T15:07:00.556Z,95152.6
2018-08-16T15:11:56.484Z,95259.9
2018-08-16T15:16:52.448Z,95262.4
2018-08-16T15:21:48.473Z,95262.5
2018-08-16T15:26:44.496Z,95265.8
2018-08-16T15:31:40.266Z,95258.3
2018-08-16T15:36:36.145Z,95150.9
2018-08-16T15:41:32.170Z,95252.9
2018-08-16T15:46:28.243Z,95250.2
2018-08-16T15:51:24.281Z,95251.7
2018-08-16T15:56:19.758Z,95281.8
2018-08-16T16:01:15.625Z,95142.5
2018-08-16T16:06:11.503Z,95248.6
2018-08-16T16:11:07.241Z,95249.1
2018-08-16T16:16:03.053Z,95155.8
2018-08-16T16:20:58.971Z,95149.5
2018-08-16T16:25:54.734Z,95150.3
2018-08-16T16:30:50.026Z,95150.9
2018-08-16T16:35:45.746Z,95149.5
2018-08-16T16:40:41.887Z,95258.3
2018-08-16T16:45:37.645Z,95157.6
2018-08-16T16:50:33.031Z,95167.1
2018-08-16T16:55:28.857Z,95269
2018-08-16T17:00:24.979Z,95166.2
2018-08-16T17:05:20.907Z,95277.1
2018-08-16T17:10:16.777Z,95272.9
2018-08-16T17:20:12.459Z,95157.5
2018-08-16T17:25:08.447Z,95267.1
2018-08-16T17:30:04.390Z,95211.1
2018-08-16T17:35:00.097Z,95181.1
2018-08-16T17:39:56.003Z,95144.8
2018-08-16T17:44:51.731Z,95192.5
2018-08-16T17:49:47.707Z,95297
2018-08-16T17:54:44.091Z,95303.9
2018-08-16T17:59:40.562Z,95203
2018-08-16T18:04:36.421Z,95312.4
2018-08-16T18:09:31.902Z,95314.2
2018-08-16T18:14:27.734Z,95317
2018-08-16T18:19:23.874Z,95330.6
2018-08-16T18:24:20.034Z,95234.2
2018-08-16T18:29:16.968Z,95227.9
2018-08-16T18:34:16.761Z,95239.3
2018-08-16T18:39:11.399Z,95346.5
2018-08-16T18:44:07.309Z,95246.2
2018-08-16T18:49:03.370Z,95350.5
2018-08-16T18:53:59.862Z,95150
2018-08-16T18:58:55.549Z,95358.8
2018-08-16T19:03:51.526Z,95320.2
2018-08-16T19:08:47.420Z,95362.8
2018-08-16T19:13:43.296Z,95364.2
2018-08-16T19:18:39.412Z,95363.7
2018-08-16T19:23:35.217Z,95364.5
2018-08-16T19:28:31.074Z,95282.6
2018-08-16T19:33:27.089Z,95356.3
2018-08-16T19:38:23.181Z,95353.7
2018-08-16T19:43:19.307Z,95354
2018-08-16T19:48:15.668Z,95362.1
2018-08-16T19:53:11.716Z,95359.6
2018-08-16T19:58:08.286Z,95354.1
2018-08-16T20:03:06.700Z,95358
2018-08-16T20:08:02.135Z,95363.2
2018-08-16T20:12:57.961Z,95362.7
2018-08-16T20:17:53.903Z,95358.6
2018-08-16T20:22:50.006Z,95363.8
2018-08-16T20:27:46.044Z,95329.8
2018-08-16T20:32:41.972Z,95373.8
2018-08-16T20:37:37.942Z,95377.3
2018-08-16T20:42:35.866Z,95376
2018-08-16T20:47:31.223Z,95387.6
2018-08-16T20:52:31.648Z,95331.1
2018-08-16T20:57:25.982Z,95382.7
2018-08-16T21:02:21.892Z,95387.4
2018-08-16T21:07:18.275Z,95274.6
2018-08-16T21:12:13.942Z,95386.6
2018-08-16T21:17:10.080Z,95383
2018-08-16T21:22:05.980Z,95386.5
2018-08-16T21:27:01.772Z,95381.2
2018-08-16T21:31:57.457Z,95387
2018-08-16T21:36:53.220Z,95392.8
2018-08-16T21:41:49.045Z,95282.5
2018-08-16T21:46:45.132Z,95392.6
2018-08-16T21:51:42.016Z,95222.3
2018-08-16T21:56:37.481Z,95394
2018-08-16T22:01:33.500Z,95392.3
2018-08-16T22:06:29.247Z,95392.2
2018-08-16T22:11:25.393Z,95385.3
2018-08-16T22:16:21.491Z,95348.1
2018-08-16T22:21:17.111Z,95391.4
2018-08-16T22:26:13.121Z,95387.8
2018-08-16T22:31:08.981Z,95393.3
2018-08-16T22:36:04.948Z,95396.4
2018-08-16T22:41:00.793Z,95401.8
2018-08-16T22:45:56.807Z,95407.3
2018-08-16T22:50:52.599Z,95401.3
2018-08-16T22:55:48.572Z,95395.4
2018-08-16T23:00:44.656Z,95297.6
2018-08-16T23:05:40.593Z,95403.3
2018-08-16T23:10:36.657Z,95290
2018-08-16T23:15:32.483Z,95283.8
2018-08-16T23:20:28.395Z,95389.7
2018-08-16T23:25:24.145Z,95386.3
2018-08-16T23:30:20.159Z,95279.9
2018-08-16T23:35:15.844Z,95394.8
2018-08-16T23:40:11.530Z,95397.6
2018-08-16T23:45:07.466Z,95286.7
2018-08-16T23:50:03.851Z,95294.8
2018-08-16T23:54:59.712Z,95298.7
2018-08-16T23:59:56.047Z,95290.5
